Pagina principale
METAR-TAF:

METAR-TAF

Aeroporti :

Náměšť nad Oslavou, Repubblica Ceca

latitudine: 49-09-57N, longitudine: 16-07-30E, altezza: 472 m

Osservazione

Il bollettino è stato emesso 51 minuti fa, alle 13:00 UTC
Vento 8 kt da sud
Temperature 25°C
Umidità 44%
Pressione 1016 hPa
Visibilità 10 km o più
nessuna nube inferiore a 1500 m e nessun cumulonembo

METAR: LKNA 171300Z 18008KT CAVOK 25/12 Q1016 RMK BLACK

Ora: 15:51 (13:51 UTC)

Previsione

Il bollettino è stato emesso 2 ore e 51 minuti fa, alle 11:00 UTC
Previsione valida dal 17 alle 12 UTC al 18 alle 12 UTC
Vento 2 kt da direzioni variabili
Visibilità 10 km o più
nessuna nube inferiore a 1500 m e nessun cumulonembo
Probabilità 40% :
Temporaneamente
dal 17 alle 13 UTC al 18 alle 01 UTC
Vento 8 kt da sud
Visibilità: 7000 m
Nubi sparse ad un'altezza di 3500 ft, Cumulo congesto.
rovesci di pioggia,

TAF: LKNA 171100Z 1712/1812 VRB02KT CAVOK PROB40 TEMPO 1713/1801 17008KT 7000 SHRA SCT035TCU

Osservazioni e previsioni meteorologiche di più di 4000 aeroporti (messaggi METAR e TAF).

Le stazioni disponibili sono rappresentate dai dischi gialli e rossi sulla carta.

Puntare il mouse per vedere il nome della stazione.

Clicca sopra per visualizzare le osservazioni e previsioni meteorologiche.

Per cambiare la mappa : fare clic sui pulsanti verdi con una croce nera per ingrandire, il pulsante verde con un trattino per diminuire, o sulla freccia verde per le mappe adiacenti.


METAR-TAF: